createdAt,value
2019-05-20T00:04:39.033Z,84.67
2019-05-20T00:10:43.885Z,84.91
2019-05-20T00:16:48.601Z,85.52
2019-05-20T00:22:53.176Z,85.69
2019-05-20T00:28:57.719Z,89.87
2019-05-20T00:35:02.535Z,89.45
2019-05-20T00:41:07.267Z,87.79
2019-05-20T00:47:11.829Z,88.63
2019-05-20T00:53:16.537Z,88.00
2019-05-20T00:59:21.179Z,87.44
2019-05-20T01:05:25.990Z,87.58
2019-05-20T01:11:30.598Z,87.46
2019-05-20T01:17:35.161Z,88.58
2019-05-20T01:23:39.900Z,88.67
2019-05-20T01:29:44.507Z,87.57
2019-05-20T01:35:49.072Z,88.64
2019-05-20T01:41:53.748Z,89.87
2019-05-20T01:47:58.405Z,88.17
2019-05-20T01:54:03.145Z,90.46
2019-05-20T02:00:09.630Z,90.93
2019-05-20T02:06:14.287Z,90.40
2019-05-20T02:12:18.931Z,88.89
2019-05-20T02:18:23.513Z,88.97
2019-05-20T02:24:28.229Z,89.54
2019-05-20T02:30:32.791Z,89.60
2019-05-20T02:36:37.470Z,90.55
2019-05-20T02:42:42.098Z,89.36
2019-05-20T02:48:46.709Z,89.64
2019-05-20T02:54:51.622Z,90.11
2019-05-20T03:00:56.168Z,91.08
2019-05-20T03:07:00.813Z,92.46
2019-05-20T03:13:05.371Z,91.88
2019-05-20T03:19:09.941Z,92.73
2019-05-20T03:25:15.628Z,92.60
2019-05-20T03:31:20.248Z,92.68
2019-05-20T03:37:24.802Z,92.02
2019-05-20T03:43:29.384Z,91.37
2019-05-20T03:49:33.959Z,92.25
2019-05-20T03:55:38.576Z,92.21
2019-05-20T04:01:43.225Z,92.28
2019-05-20T04:07:47.867Z,91.76
2019-05-20T04:13:52.501Z,91.36
2019-05-20T04:19:57.066Z,91.06
2019-05-20T04:26:01.639Z,90.49
2019-05-20T04:32:06.255Z,92.16
2019-05-20T04:38:10.898Z,93.24
2019-05-20T04:44:15.472Z,92.13
2019-05-20T04:50:20.886Z,90.99
2019-05-20T04:56:28.996Z,90.70
2019-05-20T05:02:31.908Z,90.76
2019-05-20T05:08:36.542Z,89.54
2019-05-20T05:14:41.252Z,88.23
2019-05-20T05:20:45.869Z,86.80
2019-05-20T05:26:50.501Z,84.56
2019-05-20T05:32:55.079Z,82.39
2019-05-20T05:38:59.793Z,81.23
2019-05-20T05:45:06.498Z,80.82
2019-05-20T05:51:11.175Z,80.81
2019-05-20T05:57:17.740Z,80.44
2019-05-20T06:03:22.166Z,81.29
2019-05-20T06:09:26.713Z,82.36
2019-05-20T06:15:31.385Z,79.05
2019-05-20T06:21:35.919Z,77.38
2019-05-20T06:27:40.486Z,79.15
2019-05-20T06:33:45.146Z,78.12
2019-05-20T06:39:51.310Z,77.95
2019-05-20T06:45:56.106Z,77.87
2019-05-20T06:52:00.695Z,78.73
2019-05-20T06:58:05.612Z,78.35
2019-05-20T07:04:10.296Z,78.56
2019-05-20T07:10:15.070Z,76.66
2019-05-20T07:16:19.677Z,74.78
2019-05-20T07:22:24.321Z,73.26
2019-05-20T07:28:28.994Z,70.02
2019-05-20T07:34:33.850Z,68.31
2019-05-20T07:40:38.460Z,69.63
2019-05-20T07:46:43.277Z,65.53
2019-05-20T07:52:48.286Z,66.90
2019-05-20T07:58:56.939Z,64.78
2019-05-20T08:05:01.572Z,64.57
2019-05-20T08:11:06.622Z,63.64
2019-05-20T08:17:11.266Z,65.53
2019-05-20T08:23:15.888Z,66.16
2019-05-20T08:29:20.556Z,65.87
2019-05-20T08:35:25.170Z,64.91
2019-05-20T08:41:29.749Z,63.62
2019-05-20T08:47:34.373Z,62.27
2019-05-20T08:53:39.009Z,61.03
2019-05-20T08:59:43.560Z,61.04
2019-05-20T09:05:48.129Z,62.97
2019-05-20T09:11:52.745Z,63.36
2019-05-20T09:18:03.516Z,60.90
2019-05-20T09:24:08.246Z,61.64
2019-05-20T09:30:14.765Z,63.31
2019-05-20T09:36:25.717Z,60.07
2019-05-20T09:42:30.025Z,59.02
2019-05-20T09:48:34.613Z,58.02
2019-05-20T09:54:39.246Z,56.50
2019-05-20T10:00:44.116Z,55.05
2019-05-20T10:06:48.798Z,52.02
2019-05-20T10:12:53.583Z,50.17
2019-05-20T10:19:01.979Z,51.81
2019-05-20T10:25:08.555Z,52.51
2019-05-20T10:31:13.191Z,55.47
2019-05-20T10:37:17.749Z,57.83
2019-05-20T10:43:23.959Z,59.92
2019-05-20T10:49:28.525Z,58.00
2019-05-20T10:55:33.192Z,53.80
2019-05-20T11:01:44.030Z,50.77
2019-05-20T11:07:44.297Z,48.64
2019-05-20T11:13:48.954Z,50.66
2019-05-20T11:19:53.686Z,48.14
2019-05-20T11:25:58.402Z,49.84
2019-05-20T11:32:03.044Z,50.92
2019-05-20T11:38:07.789Z,52.53
2019-05-20T11:44:12.486Z,51.30
2019-05-20T11:50:18.844Z,47.89
2019-05-20T11:56:23.405Z,48.83
2019-05-20T12:02:28.046Z,48.72
2019-05-20T12:08:32.621Z,47.07
2019-05-20T12:14:37.187Z,48.04
2019-05-20T12:20:42.840Z,52.53
2019-05-20T12:26:47.392Z,48.69
2019-05-20T12:33:15.615Z,51.22
2019-05-20T12:38:59.924Z,48.33
2019-05-20T12:45:07.533Z,47.73
2019-05-20T12:51:14.501Z,45.15
2019-05-20T12:57:23.042Z,49.47
2019-05-20T13:03:29.941Z,55.65
2019-05-20T13:09:34.558Z,57.49
2019-05-20T13:15:39.240Z,52.90
2019-05-20T13:21:43.929Z,53.11
2019-05-20T13:27:48.743Z,48.88
2019-05-20T13:33:53.448Z,55.37
2019-05-20T13:40:02.162Z,54.86
2019-05-20T13:46:08.973Z,56.37
2019-05-20T13:52:18.491Z,53.49
2019-05-20T13:58:23.446Z,52.18
2019-05-20T14:04:28.279Z,53.38
2019-05-20T14:10:32.866Z,54.13
2019-05-20T14:16:37.524Z,57.40
2019-05-20T14:22:42.089Z,59.14
2019-05-20T14:28:48.219Z,60.79
2019-05-20T14:34:54.471Z,62.88
2019-05-20T14:40:59.067Z,61.72
2019-05-20T14:47:03.701Z,63.27
2019-05-20T14:53:08.288Z,64.31
2019-05-20T14:59:12.858Z,60.33
2019-05-20T15:05:17.559Z,63.14
2019-05-20T15:11:37.212Z,64.94
2019-05-20T15:17:28.509Z,68.57
2019-05-20T15:23:33.110Z,70.09
2019-05-20T15:29:37.698Z,71.25
2019-05-20T15:35:42.283Z,72.55
2019-05-20T15:41:46.898Z,72.31
2019-05-20T15:47:51.538Z,73.09
2019-05-20T15:53:56.140Z,73.55
2019-05-20T16:00:00.738Z,73.38
2019-05-20T16:06:05.506Z,73.52
2019-05-20T16:12:10.174Z,75.66
2019-05-20T16:18:14.799Z,72.48
2019-05-20T16:24:19.363Z,84.60
2019-05-20T16:30:24.013Z,88.09
2019-05-20T16:36:28.668Z,90.65
2019-05-20T16:42:33.316Z,91.87
2019-05-20T16:48:40.658Z,91.35
2019-05-20T16:54:45.290Z,93.31
2019-05-20T17:00:49.858Z,91.37
2019-05-20T17:06:54.435Z,92.02
2019-05-20T17:12:59.126Z,92.01
2019-05-20T17:19:03.711Z,94.08
2019-05-20T17:25:11.429Z,95.34
2019-05-20T17:31:16.005Z,96.01
2019-05-20T17:37:20.626Z,94.71
2019-05-20T17:43:25.205Z,96.28
2019-05-20T17:49:29.912Z,95.34
2019-05-20T17:55:34.554Z,95.36
2019-05-20T18:01:39.114Z,94.57
2019-05-20T18:07:43.873Z,94.89
2019-05-20T18:13:48.515Z,94.59
2019-05-20T18:19:53.149Z,94.30
2019-05-20T18:25:57.709Z,94.60
2019-05-20T18:32:02.342Z,95.83
2019-05-20T18:38:06.898Z,96.18
2019-05-20T18:44:13.455Z,95.93
2019-05-20T18:50:19.193Z,96.48
2019-05-20T18:56:23.781Z,96.18
2019-05-20T19:02:28.322Z,97.53
2019-05-20T19:08:32.969Z,97.92
2019-05-20T19:14:37.650Z,98.76
2019-05-20T19:20:42.218Z,99.24
2019-05-20T19:26:46.852Z,98.55
2019-05-20T19:32:51.407Z,98.82
2019-05-20T19:38:55.973Z,100.00
2019-05-20T19:45:00.561Z,99.79
2019-05-20T19:51:05.189Z,100.00
2019-05-20T19:57:09.776Z,100.00
2019-05-20T20:03:14.336Z,100.00
2019-05-20T20:09:18.966Z,100.00
2019-05-20T20:15:23.695Z,100.00
2019-05-20T20:21:28.259Z,98.00
2019-05-20T20:27:32.848Z,99.02
2019-05-20T20:33:37.391Z,99.62
2019-05-20T20:39:42.053Z,98.41
2019-05-20T20:45:46.835Z,98.58
2019-05-20T20:51:51.393Z,99.35
2019-05-20T20:57:55.974Z,98.74
2019-05-20T21:04:00.771Z,99.83
2019-05-20T21:10:07.446Z,100.00
2019-05-20T21:16:12.092Z,100.00
2019-05-20T21:22:16.667Z,100.00
2019-05-20T21:28:21.227Z,100.00
2019-05-20T21:34:25.870Z,100.00
2019-05-20T21:40:30.498Z,100.00
2019-05-20T21:46:35.092Z,100.00
2019-05-20T21:52:39.646Z,100.00
2019-05-20T21:58:44.206Z,100.00
2019-05-20T22:04:48.841Z,100.00
2019-05-20T22:10:53.410Z,100.00
2019-05-20T22:16:57.965Z,100.00
2019-05-20T22:23:14.255Z,100.00
2019-05-20T22:29:18.892Z,100.00
2019-05-20T22:35:23.495Z,100.00
2019-05-20T22:41:28.101Z,100.00
2019-05-20T22:47:32.684Z,100.00
2019-05-20T22:53:37.315Z,100.00
2019-05-20T22:59:41.975Z,100.00
2019-05-20T23:05:46.540Z,100.00
2019-05-20T23:11:51.092Z,100.00
2019-05-20T23:17:55.749Z,100.00
2019-05-20T23:24:00.323Z,100.00
2019-05-20T23:30:07.808Z,100.00
2019-05-20T23:36:12.526Z,100.00
2019-05-20T23:42:17.905Z,100.00
2019-05-20T23:48:22.471Z,100.00
2019-05-20T23:54:27.062Z,100.00
